Allegan, Michigan
Current Conditions -  °F | °C
As of 12:53 PM on Friday 21 Nov 2014 (Local Time) from KBIV Reporting Station
Scattered Clouds Scattered Clouds  
Wind Chill: -7°   Ceiling: Unl
Heat Index: -2°   Visibility: 10mi
Dew Point: -9°   Wind: 10mph
Humidity: 58%   Direction: 220°SW
Pressure: 30.43"   Gusts: NA
Location:  42.53°N, 85.86°W
Report Text: KBIV 211753Z AUTO 22009KT 10SM SCT032 M02/M09 A3043 RMK AO2 SLP314 60000 T10171089 11011 21078 58004
Loading
Personal Weather Stations






























Interactive Weather Map New forecast layout! Learn more

10-Day Weather Forecast

Advertisements
Track Severe Weather on mobile